sensor_id;sensor_type;location;lat;lon;timestamp;P1;durP1;ratioP1;P2;durP2;ratioP2
78169;SDS011;67412;49.892;14.490;2023-02-28T00:02:19;11.75;;;3.30;;
78169;SDS011;67412;49.892;14.490;2023-02-28T00:04:44;8.45;;;3.08;;
78169;SDS011;67412;49.892;14.490;2023-02-28T00:07:11;12.52;;;3.55;;
78169;SDS011;67412;49.892;14.490;2023-02-28T00:09:36;14.38;;;4.55;;
78169;SDS011;67412;49.892;14.490;2023-02-28T00:12:01;17.85;;;4.80;;
78169;SDS011;67412;49.892;14.490;2023-02-28T00:14:35;12.57;;;4.32;;
78169;SDS011;67412;49.892;14.490;2023-02-28T00:17:03;12.73;;;3.70;;
78169;SDS011;67412;49.892;14.490;2023-02-28T00:19:28;11.35;;;3.85;;
78169;SDS011;67412;49.892;14.490;2023-02-28T00:21:54;13.02;;;3.20;;
78169;SDS011;67412;49.892;14.490;2023-02-28T00:24:19;11.10;;;3.40;;
78169;SDS011;67412;49.892;14.490;2023-02-28T00:26:45;13.55;;;4.40;;
78169;SDS011;67412;49.892;14.490;2023-02-28T00:29:10;9.85;;;3.40;;
78169;SDS011;67412;49.892;14.490;2023-02-28T00:31:35;9.05;;;2.85;;
78169;SDS011;67412;49.892;14.490;2023-02-28T00:34:01;8.93;;;3.60;;
78169;SDS011;67412;49.892;14.490;2023-02-28T00:36:26;10.35;;;3.60;;
78169;SDS011;67412;49.892;14.490;2023-02-28T00:38:51;6.68;;;2.42;;
78169;SDS011;67412;49.892;14.490;2023-02-28T00:41:17;9.10;;;3.35;;
78169;SDS011;67412;49.892;14.490;2023-02-28T00:43:42;9.52;;;2.92;;
78169;SDS011;67412;49.892;14.490;2023-02-28T00:46:08;11.63;;;3.90;;
78169;SDS011;67412;49.892;14.490;2023-02-28T00:48:34;8.20;;;2.72;;
78169;SDS011;67412;49.892;14.490;2023-02-28T00:50:59;9.15;;;3.00;;
78169;SDS011;67412;49.892;14.490;2023-02-28T00:53:25;8.55;;;2.38;;
78169;SDS011;67412;49.892;14.490;2023-02-28T00:55:51;8.00;;;3.33;;
78169;SDS011;67412;49.892;14.490;2023-02-28T00:58:16;10.23;;;3.40;;
78169;SDS011;67412;49.892;14.490;2023-02-28T01:00:41;9.73;;;3.22;;
78169;SDS011;67412;49.892;14.490;2023-02-28T01:03:07;12.27;;;3.60;;
78169;SDS011;67412;49.892;14.490;2023-02-28T01:05:32;10.05;;;3.17;;
78169;SDS011;67412;49.892;14.490;2023-02-28T01:07:57;7.43;;;3.08;;
78169;SDS011;67412;49.892;14.490;2023-02-28T01:10:23;9.45;;;2.58;;
78169;SDS011;67412;49.892;14.490;2023-02-28T01:12:50;8.35;;;2.38;;
78169;SDS011;67412;49.892;14.490;2023-02-28T01:15:15;9.65;;;2.63;;
78169;SDS011;67412;49.892;14.490;2023-02-28T01:17:41;6.93;;;2.50;;
78169;SDS011;67412;49.892;14.490;2023-02-28T01:20:06;10.98;;;3.72;;
78169;SDS011;67412;49.892;14.490;2023-02-28T01:22:34;7.93;;;2.55;;
78169;SDS011;67412;49.892;14.490;2023-02-28T01:24:59;7.88;;;3.05;;
78169;SDS011;67412;49.892;14.490;2023-02-28T01:27:25;7.20;;;2.38;;
78169;SDS011;67412;49.892;14.490;2023-02-28T01:29:51;9.10;;;2.50;;
78169;SDS011;67412;49.892;14.490;2023-02-28T01:32:17;9.10;;;2.88;;
78169;SDS011;67412;49.892;14.490;2023-02-28T01:34:42;9.00;;;2.60;;
78169;SDS011;67412;49.892;14.490;2023-02-28T01:37:07;7.68;;;2.78;;
78169;SDS011;67412;49.892;14.490;2023-02-28T01:39:33;8.15;;;2.95;;
78169;SDS011;67412;49.892;14.490;2023-02-28T01:41:58;13.15;;;3.53;;
78169;SDS011;67412;49.892;14.490;2023-02-28T01:47:23;9.27;;;2.67;;
78169;SDS011;67412;49.892;14.490;2023-02-28T01:49:52;8.15;;;2.92;;
78169;SDS011;67412;49.892;14.490;2023-02-28T01:52:18;10.02;;;3.10;;
78169;SDS011;67412;49.892;14.490;2023-02-28T01:54:54;9.68;;;3.20;;
78169;SDS011;67412;49.892;14.490;2023-02-28T01:57:25;8.57;;;2.58;;
78169;SDS011;67412;49.892;14.490;2023-02-28T01:59:57;10.98;;;3.22;;
78169;SDS011;67412;49.892;14.490;2023-02-28T02:02:26;9.57;;;3.03;;
78169;SDS011;67412;49.892;14.490;2023-02-28T02:04:58;9.52;;;3.17;;
78169;SDS011;67412;49.892;14.490;2023-02-28T02:07:32;11.57;;;3.22;;
78169;SDS011;67412;49.892;14.490;2023-02-28T02:12:43;10.80;;;3.65;;
78169;SDS011;67412;49.892;14.490;2023-02-28T02:15:32;8.85;;;2.63;;
78169;SDS011;67412;49.892;14.490;2023-02-28T02:18:01;11.18;;;3.60;;
78169;SDS011;67412;49.892;14.490;2023-02-28T02:40:37;7.65;;;2.80;;
78169;SDS011;67412;49.892;14.490;2023-02-28T02:43:08;8.23;;;2.75;;
78169;SDS011;67412;49.892;14.490;2023-02-28T02:45:45;6.45;;;2.20;;
78169;SDS011;67412;49.892;14.490;2023-02-28T02:48:19;12.02;;;4.03;;
78169;SDS011;67412;49.892;14.490;2023-02-28T02:50:53;7.18;;;2.35;;
78169;SDS011;67412;49.892;14.490;2023-02-28T02:53:22;11.63;;;3.50;;
78169;SDS011;67412;49.892;14.490;2023-02-28T02:55:53;8.40;;;3.20;;
78169;SDS011;67412;49.892;14.490;2023-02-28T02:58:25;11.05;;;3.58;;
78169;SDS011;67412;49.892;14.490;2023-02-28T03:00:57;11.07;;;3.15;;
78169;SDS011;67412;49.892;14.490;2023-02-28T03:03:25;8.07;;;3.08;;
78169;SDS011;67412;49.892;14.490;2023-02-28T03:05:56;8.30;;;3.15;;
78169;SDS011;67412;49.892;14.490;2023-02-28T03:08:22;9.57;;;3.67;;
78169;SDS011;67412;49.892;14.490;2023-02-28T03:10:49;10.98;;;3.60;;
78169;SDS011;67412;49.892;14.490;2023-02-28T03:18:53;10.43;;;3.35;;
78169;SDS011;67412;49.892;14.490;2023-02-28T03:24:10;9.02;;;3.40;;
78169;SDS011;67412;49.892;14.490;2023-02-28T03:26:43;10.05;;;3.70;;
78169;SDS011;67412;49.892;14.490;2023-02-28T03:31:50;12.43;;;3.58;;
78169;SDS011;67412;49.892;14.490;2023-02-28T03:34:28;11.90;;;4.07;;
78169;SDS011;67412;49.892;14.490;2023-02-28T03:37:02;8.50;;;2.70;;
78169;SDS011;67412;49.892;14.490;2023-02-28T03:39:35;10.60;;;3.47;;
78169;SDS011;67412;49.892;14.490;2023-02-28T03:42:06;7.22;;;2.60;;
78169;SDS011;67412;49.892;14.490;2023-02-28T03:44:54;11.18;;;3.45;;
78169;SDS011;67412;49.892;14.490;2023-02-28T03:52:36;9.27;;;3.08;;
78169;SDS011;67412;49.892;14.490;2023-02-28T03:55:08;8.88;;;3.65;;
78169;SDS011;67412;49.892;14.490;2023-02-28T03:57:41;12.45;;;4.28;;
78169;SDS011;67412;49.892;14.490;2023-02-28T04:00:31;12.40;;;4.32;;
78169;SDS011;67412;49.892;14.490;2023-02-28T04:03:02;14.50;;;4.43;;
78169;SDS011;67412;49.892;14.490;2023-02-28T04:05:29;11.20;;;3.22;;
78169;SDS011;67412;49.892;14.490;2023-02-28T04:08:03;11.27;;;3.47;;
78169;SDS011;67412;49.892;14.490;2023-02-28T04:10:32;9.90;;;3.40;;
78169;SDS011;67412;49.892;14.490;2023-02-28T04:12:58;10.77;;;3.17;;
78169;SDS011;67412;49.892;14.490;2023-02-28T04:15:23;13.05;;;3.38;;
78169;SDS011;67412;49.892;14.490;2023-02-28T04:17:49;6.20;;;2.55;;
78169;SDS011;67412;49.892;14.490;2023-02-28T04:20:15;7.55;;;3.13;;
78169;SDS011;67412;49.892;14.490;2023-02-28T04:22:40;9.73;;;2.72;;
78169;SDS011;67412;49.892;14.490;2023-02-28T04:25:06;10.90;;;3.50;;
78169;SDS011;67412;49.892;14.490;2023-02-28T04:27:32;11.63;;;3.75;;
78169;SDS011;67412;49.892;14.490;2023-02-28T04:29:58;7.97;;;2.70;;
78169;SDS011;67412;49.892;14.490;2023-02-28T04:32:23;7.97;;;2.50;;
78169;SDS011;67412;49.892;14.490;2023-02-28T04:34:48;13.15;;;3.83;;
78169;SDS011;67412;49.892;14.490;2023-02-28T04:37:14;8.27;;;2.85;;
78169;SDS011;67412;49.892;14.490;2023-02-28T04:39:39;11.20;;;3.78;;
78169;SDS011;67412;49.892;14.490;2023-02-28T04:42:06;8.18;;;2.95;;
78169;SDS011;67412;49.892;14.490;2023-02-28T04:44:31;14.15;;;3.97;;
78169;SDS011;67412;49.892;14.490;2023-02-28T04:46:57;8.52;;;3.28;;
78169;SDS011;67412;49.892;14.490;2023-02-28T04:49:22;11.20;;;3.80;;
78169;SDS011;67412;49.892;14.490;2023-02-28T04:51:47;4.78;;;2.00;;
78169;SDS011;67412;49.892;14.490;2023-02-28T04:54:14;9.43;;;3.15;;
78169;SDS011;67412;49.892;14.490;2023-02-28T04:56:41;7.93;;;3.20;;
78169;SDS011;67412;49.892;14.490;2023-02-28T04:59:06;8.77;;;3.17;;
78169;SDS011;67412;49.892;14.490;2023-02-28T05:01:32;11.75;;;3.35;;
78169;SDS011;67412;49.892;14.490;2023-02-28T05:04:00;7.25;;;2.90;;
78169;SDS011;67412;49.892;14.490;2023-02-28T05:08:53;4.50;;;1.70;;
78169;SDS011;67412;49.892;14.490;2023-02-28T05:11:20;13.85;;;3.35;;
78169;SDS011;67412;49.892;14.490;2023-02-28T05:13:49;13.02;;;4.25;;
78169;SDS011;67412;49.892;14.490;2023-02-28T05:16:15;6.43;;;2.45;;
78169;SDS011;67412;49.892;14.490;2023-02-28T05:18:41;8.55;;;2.95;;
78169;SDS011;67412;49.892;14.490;2023-02-28T05:21:17;9.70;;;3.28;;
78169;SDS011;67412;49.892;14.490;2023-02-28T05:23:51;7.32;;;2.70;;
78169;SDS011;67412;49.892;14.490;2023-02-28T05:26:17;9.05;;;3.25;;
78169;SDS011;67412;49.892;14.490;2023-02-28T05:28:43;5.57;;;2.17;;
78169;SDS011;67412;49.892;14.490;2023-02-28T05:31:12;12.05;;;3.50;;
78169;SDS011;67412;49.892;14.490;2023-02-28T05:33:38;8.95;;;3.17;;
78169;SDS011;67412;49.892;14.490;2023-02-28T05:36:04;9.55;;;3.38;;
78169;SDS011;67412;49.892;14.490;2023-02-28T05:38:30;8.30;;;2.72;;
78169;SDS011;67412;49.892;14.490;2023-02-28T05:40:56;7.90;;;2.33;;
78169;SDS011;67412;49.892;14.490;2023-02-28T05:43:21;10.32;;;3.00;;
78169;SDS011;67412;49.892;14.490;2023-02-28T05:45:47;11.02;;;4.38;;
78169;SDS011;67412;49.892;14.490;2023-02-28T05:48:13;9.77;;;3.00;;
78169;SDS011;67412;49.892;14.490;2023-02-28T05:50:38;13.27;;;3.88;;
78169;SDS011;67412;49.892;14.490;2023-02-28T05:53:03;12.75;;;4.32;;
78169;SDS011;67412;49.892;14.490;2023-02-28T05:55:29;17.40;;;5.13;;
78169;SDS011;67412;49.892;14.490;2023-02-28T05:57:54;12.77;;;4.25;;
78169;SDS011;67412;49.892;14.490;2023-02-28T06:00:21;19.42;;;6.15;;
78169;SDS011;67412;49.892;14.490;2023-02-28T06:02:47;11.27;;;4.40;;
78169;SDS011;67412;49.892;14.490;2023-02-28T06:05:17;21.02;;;5.53;;
78169;SDS011;67412;49.892;14.490;2023-02-28T06:07:43;15.80;;;5.60;;
78169;SDS011;67412;49.892;14.490;2023-02-28T06:10:09;15.40;;;4.88;;
78169;SDS011;67412;49.892;14.490;2023-02-28T06:12:36;14.10;;;5.25;;
78169;SDS011;67412;49.892;14.490;2023-02-28T06:15:02;9.85;;;2.80;;
78169;SDS011;67412;49.892;14.490;2023-02-28T06:17:27;10.73;;;4.95;;
78169;SDS011;67412;49.892;14.490;2023-02-28T06:19:53;12.60;;;4.32;;
78169;SDS011;67412;49.892;14.490;2023-02-28T06:22:18;11.43;;;3.92;;
78169;SDS011;67412;49.892;14.490;2023-02-28T06:24:44;13.82;;;3.85;;
78169;SDS011;67412;49.892;14.490;2023-02-28T06:27:09;13.95;;;4.65;;
78169;SDS011;67412;49.892;14.490;2023-02-28T06:29:35;12.40;;;4.40;;
78169;SDS011;67412;49.892;14.490;2023-02-28T06:32:01;13.80;;;4.82;;
78169;SDS011;67412;49.892;14.490;2023-02-28T06:34:27;11.98;;;3.45;;
78169;SDS011;67412;49.892;14.490;2023-02-28T06:36:52;13.52;;;4.78;;
78169;SDS011;67412;49.892;14.490;2023-02-28T06:39:18;18.42;;;5.68;;
78169;SDS011;67412;49.892;14.490;2023-02-28T06:41:44;10.07;;;3.30;;
78169;SDS011;67412;49.892;14.490;2023-02-28T06:44:14;10.52;;;4.13;;
78169;SDS011;67412;49.892;14.490;2023-02-28T06:46:41;10.30;;;4.25;;
78169;SDS011;67412;49.892;14.490;2023-02-28T06:49:08;9.48;;;3.45;;
78169;SDS011;67412;49.892;14.490;2023-02-28T06:51:34;15.02;;;4.93;;
78169;SDS011;67412;49.892;14.490;2023-02-28T06:54:01;8.38;;;3.47;;
78169;SDS011;67412;49.892;14.490;2023-02-28T06:56:26;10.55;;;3.45;;
78169;SDS011;67412;49.892;14.490;2023-02-28T06:58:51;11.75;;;3.67;;
78169;SDS011;67412;49.892;14.490;2023-02-28T07:01:21;9.48;;;3.45;;
78169;SDS011;67412;49.892;14.490;2023-02-28T07:03:48;16.38;;;4.05;;
78169;SDS011;67412;49.892;14.490;2023-02-28T07:06:17;15.55;;;5.00;;
78169;SDS011;67412;49.892;14.490;2023-02-28T07:08:43;10.93;;;3.20;;
78169;SDS011;67412;49.892;14.490;2023-02-28T07:11:09;13.13;;;4.20;;
78169;SDS011;67412;49.892;14.490;2023-02-28T07:13:35;9.93;;;3.45;;
78169;SDS011;67412;49.892;14.490;2023-02-28T07:16:02;13.15;;;4.43;;
78169;SDS011;67412;49.892;14.490;2023-02-28T07:18:29;11.95;;;4.20;;
78169;SDS011;67412;49.892;14.490;2023-02-28T07:20:55;15.57;;;4.35;;
78169;SDS011;67412;49.892;14.490;2023-02-28T07:23:21;9.23;;;3.60;;
78169;SDS011;67412;49.892;14.490;2023-02-28T07:25:47;9.18;;;3.50;;
78169;SDS011;67412;49.892;14.490;2023-02-28T07:28:12;6.50;;;2.67;;
78169;SDS011;67412;49.892;14.490;2023-02-28T07:30:39;5.35;;;2.28;;
78169;SDS011;67412;49.892;14.490;2023-02-28T07:33:05;9.80;;;2.63;;
78169;SDS011;67412;49.892;14.490;2023-02-28T07:35:30;10.93;;;3.45;;
78169;SDS011;67412;49.892;14.490;2023-02-28T07:37:58;10.45;;;3.80;;
78169;SDS011;67412;49.892;14.490;2023-02-28T07:40:24;10.23;;;2.55;;
78169;SDS011;67412;49.892;14.490;2023-02-28T07:42:49;7.68;;;2.58;;
78169;SDS011;67412;49.892;14.490;2023-02-28T07:45:15;8.38;;;2.60;;
78169;SDS011;67412;49.892;14.490;2023-02-28T07:47:42;10.15;;;3.25;;
78169;SDS011;67412;49.892;14.490;2023-02-28T07:50:09;9.00;;;2.60;;
78169;SDS011;67412;49.892;14.490;2023-02-28T07:52:37;8.02;;;2.95;;
78169;SDS011;67412;49.892;14.490;2023-02-28T07:55:04;12.77;;;3.70;;
78169;SDS011;67412;49.892;14.490;2023-02-28T07:57:30;11.70;;;2.95;;
78169;SDS011;67412;49.892;14.490;2023-02-28T07:59:55;4.65;;;1.70;;
78169;SDS011;67412;49.892;14.490;2023-02-28T08:02:21;6.32;;;2.38;;
78169;SDS011;67412;49.892;14.490;2023-02-28T08:04:46;7.10;;;2.40;;
78169;SDS011;67412;49.892;14.490;2023-02-28T08:07:13;10.00;;;2.67;;
78169;SDS011;67412;49.892;14.490;2023-02-28T08:09:40;11.98;;;2.92;;
78169;SDS011;67412;49.892;14.490;2023-02-28T08:12:05;7.25;;;2.05;;
78169;SDS011;67412;49.892;14.490;2023-02-28T08:14:32;9.20;;;2.80;;
78169;SDS011;67412;49.892;14.490;2023-02-28T08:16:57;7.65;;;2.30;;
78169;SDS011;67412;49.892;14.490;2023-02-28T08:19:23;8.65;;;2.35;;
78169;SDS011;67412;49.892;14.490;2023-02-28T08:21:48;4.20;;;1.70;;
78169;SDS011;67412;49.892;14.490;2023-02-28T08:24:14;5.75;;;2.00;;
78169;SDS011;67412;49.892;14.490;2023-02-28T08:26:39;6.63;;;2.47;;
78169;SDS011;67412;49.892;14.490;2023-02-28T08:29:05;7.97;;;2.60;;
78169;SDS011;67412;49.892;14.490;2023-02-28T08:31:30;6.80;;;2.58;;
78169;SDS011;67412;49.892;14.490;2023-02-28T08:33:55;7.22;;;2.53;;
78169;SDS011;67412;49.892;14.490;2023-02-28T08:36:24;6.55;;;2.05;;
78169;SDS011;67412;49.892;14.490;2023-02-28T08:38:50;7.72;;;2.53;;
78169;SDS011;67412;49.892;14.490;2023-02-28T08:41:15;6.65;;;2.28;;
78169;SDS011;67412;49.892;14.490;2023-02-28T08:43:41;8.23;;;2.63;;
78169;SDS011;67412;49.892;14.490;2023-02-28T08:46:07;7.78;;;2.38;;
78169;SDS011;67412;49.892;14.490;2023-02-28T08:48:33;6.78;;;2.58;;
78169;SDS011;67412;49.892;14.490;2023-02-28T08:53:29;10.57;;;3.17;;
78169;SDS011;67412;49.892;14.490;2023-02-28T08:55:55;6.85;;;2.85;;
78169;SDS011;67412;49.892;14.490;2023-02-28T08:58:22;6.43;;;2.38;;
78169;SDS011;67412;49.892;14.490;2023-02-28T09:00:47;6.70;;;2.42;;
78169;SDS011;67412;49.892;14.490;2023-02-28T09:03:12;9.85;;;3.30;;
78169;SDS011;67412;49.892;14.490;2023-02-28T09:05:38;10.55;;;3.35;;
78169;SDS011;67412;49.892;14.490;2023-02-28T09:08:03;9.00;;;2.90;;
78169;SDS011;67412;49.892;14.490;2023-02-28T09:10:29;9.05;;;3.13;;
78169;SDS011;67412;49.892;14.490;2023-02-28T09:12:54;10.73;;;3.70;;
78169;SDS011;67412;49.892;14.490;2023-02-28T09:15:19;10.50;;;3.47;;
78169;SDS011;67412;49.892;14.490;2023-02-28T09:17:45;10.10;;;3.50;;
78169;SDS011;67412;49.892;14.490;2023-02-28T09:20:10;7.05;;;2.38;;
78169;SDS011;67412;49.892;14.490;2023-02-28T09:22:36;9.32;;;3.38;;
78169;SDS011;67412;49.892;14.490;2023-02-28T09:25:02;11.85;;;3.55;;
78169;SDS011;67412;49.892;14.490;2023-02-28T09:27:27;6.93;;;2.90;;
78169;SDS011;67412;49.892;14.490;2023-02-28T09:29:53;10.93;;;3.35;;
78169;SDS011;67412;49.892;14.490;2023-02-28T09:32:18;10.40;;;3.53;;
78169;SDS011;67412;49.892;14.490;2023-02-28T09:34:44;7.43;;;2.85;;
78169;SDS011;67412;49.892;14.490;2023-02-28T09:37:09;6.80;;;2.67;;
78169;SDS011;67412;49.892;14.490;2023-02-28T09:39:34;9.82;;;3.70;;
78169;SDS011;67412;49.892;14.490;2023-02-28T09:42:00;10.38;;;3.63;;
78169;SDS011;67412;49.892;14.490;2023-02-28T09:52:53;7.22;;;2.70;;
78169;SDS011;67412;49.892;14.490;2023-02-28T09:57:52;13.88;;;3.70;;
78169;SDS011;67412;49.892;14.490;2023-02-28T10:00:24;9.10;;;3.05;;
78169;SDS011;67412;49.892;14.490;2023-02-28T10:05:26;12.05;;;3.92;;
78169;SDS011;67412;49.892;14.490;2023-02-28T10:08:06;11.63;;;4.00;;
78169;SDS011;67412;49.892;14.490;2023-02-28T10:10:42;11.85;;;3.30;;
78169;SDS011;67412;49.892;14.490;2023-02-28T10:16:05;10.93;;;3.75;;
78169;SDS011;67412;49.892;14.490;2023-02-28T10:18:41;9.35;;;3.72;;
78169;SDS011;67412;49.892;14.490;2023-02-28T10:21:23;10.73;;;4.07;;
78169;SDS011;67412;49.892;14.490;2023-02-28T10:24:21;14.43;;;4.20;;
78169;SDS011;67412;49.892;14.490;2023-02-28T10:26:56;11.05;;;3.55;;
78169;SDS011;67412;49.892;14.490;2023-02-28T10:29:43;12.80;;;4.65;;
78169;SDS011;67412;49.892;14.490;2023-02-28T10:32:09;6.32;;;2.40;;
78169;SDS011;67412;49.892;14.490;2023-02-28T10:34:39;12.80;;;4.53;;
78169;SDS011;67412;49.892;14.490;2023-02-28T10:37:04;10.43;;;3.33;;
78169;SDS011;67412;49.892;14.490;2023-02-28T10:39:36;9.48;;;3.58;;
78169;SDS011;67412;49.892;14.490;2023-02-28T10:42:43;9.48;;;2.60;;
78169;SDS011;67412;49.892;14.490;2023-02-28T10:55:42;7.87;;;2.93;;
78169;SDS011;67412;49.892;14.490;2023-02-28T10:58:20;12.80;;;4.03;;
78169;SDS011;67412;49.892;14.490;2023-02-28T11:00:48;10.10;;;3.10;;
78169;SDS011;67412;49.892;14.490;2023-02-28T11:03:30;11.05;;;3.42;;
78169;SDS011;67412;49.892;14.490;2023-02-28T11:05:58;14.32;;;4.30;;
78169;SDS011;67412;49.892;14.490;2023-02-28T11:08:31;11.45;;;3.72;;
78169;SDS011;67412;49.892;14.490;2023-02-28T11:10:58;11.25;;;4.13;;
78169;SDS011;67412;49.892;14.490;2023-02-28T11:13:32;9.93;;;3.75;;
78169;SDS011;67412;49.892;14.490;2023-02-28T11:16:04;11.38;;;3.97;;
78169;SDS011;67412;49.892;14.490;2023-02-28T11:20:57;12.48;;;4.30;;
78169;SDS011;67412;49.892;14.490;2023-02-28T11:23:26;12.35;;;4.10;;
78169;SDS011;67412;49.892;14.490;2023-02-28T11:25:59;10.90;;;3.78;;
78169;SDS011;67412;49.892;14.490;2023-02-28T11:28:33;10.80;;;3.95;;
78169;SDS011;67412;49.892;14.490;2023-02-28T11:38:46;9.35;;;3.28;;
78169;SDS011;67412;49.892;14.490;2023-02-28T11:46:33;7.25;;;2.75;;
78169;SDS011;67412;49.892;14.490;2023-02-28T11:51:47;10.50;;;2.42;;
78169;SDS011;67412;49.892;14.490;2023-02-28T12:06:04;11.35;;;3.75;;
78169;SDS011;67412;49.892;14.490;2023-02-28T12:11:30;8.98;;;3.47;;
78169;SDS011;67412;49.892;14.490;2023-02-28T12:16:53;10.93;;;4.82;;
78169;SDS011;67412;49.892;14.490;2023-02-28T12:25:24;11.93;;;3.47;;
78169;SDS011;67412;49.892;14.490;2023-02-28T12:27:55;13.88;;;4.43;;
78169;SDS011;67412;49.892;14.490;2023-02-28T12:30:28;12.35;;;4.40;;
78169;SDS011;67412;49.892;14.490;2023-02-28T12:33:11;13.00;;;4.18;;
78169;SDS011;67412;49.892;14.490;2023-02-28T12:35:55;10.75;;;4.15;;
78169;SDS011;67412;49.892;14.490;2023-02-28T12:38:59;13.38;;;5.15;;
78169;SDS011;67412;49.892;14.490;2023-02-28T12:41:47;12.77;;;4.00;;
78169;SDS011;67412;49.892;14.490;2023-02-28T12:44:32;8.57;;;3.33;;
78169;SDS011;67412;49.892;14.490;2023-02-28T12:47:03;11.82;;;4.03;;
78169;SDS011;67412;49.892;14.490;2023-02-28T12:49:38;12.57;;;4.60;;
78169;SDS011;67412;49.892;14.490;2023-02-28T12:52:07;12.52;;;5.03;;
78169;SDS011;67412;49.892;14.490;2023-02-28T12:54:39;12.20;;;3.45;;
78169;SDS011;67412;49.892;14.490;2023-02-28T12:57:25;11.43;;;4.45;;
78169;SDS011;67412;49.892;14.490;2023-02-28T13:00:04;13.38;;;4.60;;
78169;SDS011;67412;49.892;14.490;2023-02-28T13:10:42;10.45;;;4.47;;
78169;SDS011;67412;49.892;14.490;2023-02-28T13:13:20;14.05;;;4.55;;
78169;SDS011;67412;49.892;14.490;2023-02-28T13:15:59;12.40;;;4.53;;
78169;SDS011;67412;49.892;14.490;2023-02-28T13:21:05;8.25;;;3.42;;
78169;SDS011;67412;49.892;14.490;2023-02-28T13:26:12;14.07;;;5.45;;
78169;SDS011;67412;49.892;14.490;2023-02-28T13:31:22;11.50;;;4.35;;
78169;SDS011;67412;49.892;14.490;2023-02-28T13:38:54;9.55;;;3.95;;
78169;SDS011;67412;49.892;14.490;2023-02-28T13:44:01;11.90;;;4.40;;
78169;SDS011;67412;49.892;14.490;2023-02-28T13:46:34;13.25;;;4.22;;
78169;SDS011;67412;49.892;14.490;2023-02-28T13:51:48;10.32;;;4.03;;
78169;SDS011;67412;49.892;14.490;2023-02-28T13:57:06;12.57;;;4.82;;
78169;SDS011;67412;49.892;14.490;2023-02-28T14:05:05;11.43;;;4.65;;
78169;SDS011;67412;49.892;14.490;2023-02-28T14:07:43;11.52;;;5.00;;
78169;SDS011;67412;49.892;14.490;2023-02-28T14:10:20;15.27;;;5.28;;
78169;SDS011;67412;49.892;14.490;2023-02-28T14:18:03;12.50;;;5.00;;
78169;SDS011;67412;49.892;14.490;2023-02-28T14:20:39;12.77;;;5.20;;
78169;SDS011;67412;49.892;14.490;2023-02-28T14:23:17;11.68;;;4.85;;
78169;SDS011;67412;49.892;14.490;2023-02-28T14:28:49;11.70;;;4.68;;
78169;SDS011;67412;49.892;14.490;2023-02-28T14:31:20;13.45;;;5.13;;
78169;SDS011;67412;49.892;14.490;2023-02-28T14:36:37;14.85;;;5.38;;
78169;SDS011;67412;49.892;14.490;2023-02-28T14:39:15;14.80;;;5.70;;
78169;SDS011;67412;49.892;14.490;2023-02-28T14:41:44;15.35;;;5.28;;
78169;SDS011;67412;49.892;14.490;2023-02-28T14:46:49;14.38;;;5.65;;
78169;SDS011;67412;49.892;14.490;2023-02-28T14:51:49;14.20;;;5.18;;
78169;SDS011;67412;49.892;14.490;2023-02-28T14:54:26;15.35;;;5.15;;
78169;SDS011;67412;49.892;14.490;2023-02-28T14:56:52;15.10;;;5.38;;
78169;SDS011;67412;49.892;14.490;2023-02-28T14:59:31;14.20;;;5.20;;
78169;SDS011;67412;49.892;14.490;2023-02-28T15:04:53;13.23;;;5.47;;
78169;SDS011;67412;49.892;14.490;2023-02-28T15:07:24;11.70;;;4.82;;
78169;SDS011;67412;49.892;14.490;2023-02-28T15:12:56;21.15;;;7.63;;
78169;SDS011;67412;49.892;14.490;2023-02-28T15:15:35;13.20;;;5.60;;
78169;SDS011;67412;49.892;14.490;2023-02-28T15:18:32;13.10;;;5.50;;
78169;SDS011;67412;49.892;14.490;2023-02-28T15:21:10;13.82;;;5.32;;
78169;SDS011;67412;49.892;14.490;2023-02-28T15:23:42;14.38;;;5.50;;
78169;SDS011;67412;49.892;14.490;2023-02-28T15:26:15;10.73;;;4.72;;
78169;SDS011;67412;49.892;14.490;2023-02-28T15:28:44;12.07;;;4.68;;
78169;SDS011;67412;49.892;14.490;2023-02-28T15:34:18;11.50;;;4.53;;
78169;SDS011;67412;49.892;14.490;2023-02-28T15:36:45;12.25;;;4.95;;
78169;SDS011;67412;49.892;14.490;2023-02-28T15:39:21;10.10;;;4.28;;
78169;SDS011;67412;49.892;14.490;2023-02-28T15:41:49;15.25;;;5.88;;
78169;SDS011;67412;49.892;14.490;2023-02-28T15:49:35;14.65;;;5.10;;
78169;SDS011;67412;49.892;14.490;2023-02-28T15:55:11;14.35;;;5.10;;
78169;SDS011;67412;49.892;14.490;2023-02-28T15:57:43;12.70;;;5.18;;
78169;SDS011;67412;49.892;14.490;2023-02-28T16:00:59;10.93;;;4.07;;
78169;SDS011;67412;49.892;14.490;2023-02-28T16:03:22;14.52;;;5.22;;
78169;SDS011;67412;49.892;14.490;2023-02-28T16:08:58;11.40;;;4.35;;
78169;SDS011;67412;49.892;14.490;2023-02-28T16:11:30;11.85;;;4.40;;
78169;SDS011;67412;49.892;14.490;2023-02-28T16:13:58;12.20;;;5.03;;
78169;SDS011;67412;49.892;14.490;2023-02-28T16:16:41;10.90;;;3.92;;
78169;SDS011;67412;49.892;14.490;2023-02-28T16:19:11;10.63;;;3.70;;
78169;SDS011;67412;49.892;14.490;2023-02-28T16:21:39;15.05;;;4.50;;
78169;SDS011;67412;49.892;14.490;2023-02-28T16:24:06;9.93;;;3.72;;
78169;SDS011;67412;49.892;14.490;2023-02-28T16:26:32;12.07;;;4.05;;
78169;SDS011;67412;49.892;14.490;2023-02-28T16:29:34;10.77;;;4.25;;
78169;SDS011;67412;49.892;14.490;2023-02-28T16:32:06;15.10;;;4.93;;
78169;SDS011;67412;49.892;14.490;2023-02-28T16:34:37;15.23;;;4.72;;
78169;SDS011;67412;49.892;14.490;2023-02-28T16:37:04;11.20;;;4.78;;
78169;SDS011;67412;49.892;14.490;2023-02-28T16:39:46;12.60;;;4.65;;
78169;SDS011;67412;49.892;14.490;2023-02-28T16:42:22;12.50;;;4.90;;
78169;SDS011;67412;49.892;14.490;2023-02-28T16:48:00;18.17;;;5.35;;
78169;SDS011;67412;49.892;14.490;2023-02-28T16:50:39;17.48;;;6.80;;
78169;SDS011;67412;49.892;14.490;2023-02-28T16:53:52;17.50;;;6.65;;
78169;SDS011;67412;49.892;14.490;2023-02-28T16:59:30;19.75;;;6.53;;
78169;SDS011;67412;49.892;14.490;2023-02-28T17:01:59;21.40;;;7.63;;
78169;SDS011;67412;49.892;14.490;2023-02-28T17:04:43;19.13;;;7.45;;
78169;SDS011;67412;49.892;14.490;2023-02-28T17:07:18;22.10;;;7.97;;
78169;SDS011;67412;49.892;14.490;2023-02-28T17:09:44;20.90;;;8.25;;
78169;SDS011;67412;49.892;14.490;2023-02-28T17:12:13;22.55;;;8.68;;
78169;SDS011;67412;49.892;14.490;2023-02-28T17:14:39;23.25;;;9.18;;
78169;SDS011;67412;49.892;14.490;2023-02-28T17:17:18;27.17;;;9.70;;
78169;SDS011;67412;49.892;14.490;2023-02-28T17:19:46;28.45;;;10.43;;
78169;SDS011;67412;49.892;14.490;2023-02-28T17:22:15;23.00;;;8.90;;
78169;SDS011;67412;49.892;14.490;2023-02-28T17:24:56;28.17;;;10.55;;
78169;SDS011;67412;49.892;14.490;2023-02-28T17:27:24;24.88;;;10.27;;
78169;SDS011;67412;49.892;14.490;2023-02-28T17:29:50;28.08;;;9.85;;
78169;SDS011;67412;49.892;14.490;2023-02-28T17:32:19;27.98;;;9.18;;
78169;SDS011;67412;49.892;14.490;2023-02-28T17:34:47;27.92;;;11.00;;
78169;SDS011;67412;49.892;14.490;2023-02-28T17:37:13;32.75;;;12.70;;
78169;SDS011;67412;49.892;14.490;2023-02-28T17:39:41;28.75;;;11.07;;
78169;SDS011;67412;49.892;14.490;2023-02-28T17:42:07;32.78;;;11.80;;
78169;SDS011;67412;49.892;14.490;2023-02-28T17:44:33;28.77;;;11.88;;
78169;SDS011;67412;49.892;14.490;2023-02-28T17:46:58;36.60;;;13.75;;
78169;SDS011;67412;49.892;14.490;2023-02-28T17:49:27;43.05;;;14.85;;
78169;SDS011;67412;49.892;14.490;2023-02-28T17:51:53;42.47;;;15.20;;
78169;SDS011;67412;49.892;14.490;2023-02-28T17:57:40;40.85;;;14.90;;